Chariton Municipal Airport


Codes: KCNC/
Name: Chariton Municipal Airport
City: Chariton
Country: United States
Elevation: 1050 ft.

Photos at Chariton Municipal Airport


   Photos courtesy of SpottingLog. You can add your own sightings and photos by signing up for a free trial today.



No photos found.

Weather at Chariton Municipal Airport


Time (UTC)DescriptionTempratureWindCloud coverageVisibilityPressureHumidity
26-Jun-2024 00:00Moderate Rain30°C9 mph, SW11%10000m1008hPa76%
26-Jun-2024 03:00Light Rain27°C7 mph, SW21%10000m1008hPa83%
26-Jun-2024 06:00Heavy Intensity Rain19°C27 mph, N50%1627m1011hPa97%
26-Jun-2024 09:00Heavy Intensity Rain20°C11 mph, S100%10000m1008hPa90%
26-Jun-2024 12:00Overcast Clouds20°C4 mph, NE100%10000m1010hPa95%
26-Jun-2024 15:00Scattered Clouds23°C13 mph, NE41%10000m1011hPa89%
26-Jun-2024 18:00Light Rain26°C16 mph, NE39%10000m1013hPa69%
26-Jun-2024 21:00Clear Sky26°C11 mph, N0%10000m1013hPa64%
27-Jun-2024 00:00Clear Sky24°C9 mph, NE0%10000m1013hPa76%
27-Jun-2024 03:00Clear Sky19°C7 mph, NE0%10000m1013hPa88%
27-Jun-2024 06:00Clear Sky17°C7 mph, NE2%10000m1015hPa93%
27-Jun-2024 09:00Scattered Clouds15°C4 mph, NE28%10000m1015hPa95%
27-Jun-2024 12:00Scattered Clouds16°C4 mph, E33%10000m1015hPa94%
27-Jun-2024 15:00Overcast Clouds20°C7 mph, SE100%10000m1014hPa78%
27-Jun-2024 18:00Overcast Clouds23°C4 mph, SE100%10000m1014hPa67%
27-Jun-2024 21:00Overcast Clouds24°C7 mph, SE88%10000m1012hPa67%
28-Jun-2024 00:00Overcast Clouds22°C7 mph, SE94%10000m1010hPa82%
28-Jun-2024 03:00Broken Clouds19°C7 mph, SE51%10000m1009hPa87%
28-Jun-2024 06:00Broken Clouds21°C13 mph, SE63%10000m1007hPa77%
28-Jun-2024 09:00Light Rain20°C13 mph, S100%8457m1005hPa88%
28-Jun-2024 12:00Light Rain19°C18 mph, S100%10000m1004hPa97%
28-Jun-2024 15:00Moderate Rain19°C16 mph, S100%573m1004hPa98%
28-Jun-2024 18:00Moderate Rain21°C13 mph, S100%10000m1003hPa96%
28-Jun-2024 21:00Light Rain27°C16 mph, SW79%10000m1001hPa82%
29-Jun-2024 00:00Light Rain27°C9 mph, NW68%10000m1002hPa88%
29-Jun-2024 03:00Few Clouds23°C9 mph, NW16%10000m1006hPa94%
29-Jun-2024 06:00Light Rain21°C9 mph, NW35%10000m1008hPa92%
29-Jun-2024 09:00Broken Clouds18°C7 mph, NW72%10000m1010hPa92%
29-Jun-2024 12:00Scattered Clouds17°C9 mph, NW38%10000m1014hPa88%
29-Jun-2024 15:00Clear Sky19°C16 mph, NW0%10000m1017hPa72%
29-Jun-2024 18:00Clear Sky20°C18 mph, NW0%10000m1019hPa66%
29-Jun-2024 21:00Clear Sky20°C16 mph, NW0%10000m1020hPa65%
30-Jun-2024 00:00Clear Sky18°C13 mph, N0%10000m1021hPa75%
30-Jun-2024 03:00Clear Sky14°C7 mph, NE0%10000m1023hPa88%
30-Jun-2024 06:00Clear Sky12°C7 mph, NE1%10000m1026hPa94%
30-Jun-2024 09:00Clear Sky10°C7 mph, NE2%10000m1027hPa95%
30-Jun-2024 12:00Clear Sky10°C7 mph, NE1%10000m1027hPa91%
30-Jun-2024 15:00Clear Sky15°C9 mph, E0%10000m1027hPa72%
30-Jun-2024 18:00Clear Sky19°C9 mph, E0%10000m1026hPa63%
30-Jun-2024 21:00Clear Sky21°C9 mph, E10%10000m1024hPa62%